Ivatuba, Brazil
Current Conditions -  °F | °C
As of 4:00 PM on Friday 19 Dec 2014 (Local Time) from SBMG Reporting Station
Rain Showers Rain Showers  
Wind Chill: 84°   Ceiling: Unl
Heat Index: 88°   Visibility: 6mi
Dew Point: 70°   Wind: 3mph
Humidity: 62%   Direction: 340°NNW
Pressure: NA   Gusts: NA
Location:  23.62°S, 52.22°W
Report Text: SBMG 191800Z 34003KT 9999 VCSH SCT045 FEW050TCU SCT080 29/21 Q1008
Loading
Personal Weather Stations






























Interactive Weather Map New forecast layout! Learn more

10-Day Weather Forecast

Advertisements
Track Severe Weather on mobile